Terminal Aerodrome Forecast
Issued by NWS Norman, OK

Home | Current Version | Previous Version | Text Only | Print | Product List | Glossary On
Versions: 1 2 3 4 5 6 7 8 9 10 11 12
000
FTUS44 KOUN 261137
TAFOKC
TAF
KOKC 261137Z 2612/2712 02004KT P6SM SCT005 OVC100
      TEMPO 2612/2614 BKN005
     FM261400 05005KT P6SM BKN008
     FM261500 08004KT P6SM BKN012
     FM261900 10004KT P6SM BKN025
     FM262300 11006KT P6SM VCTS SCT035CB BKN100
     FM270200 12005KT P6SM FEW008 OVC100=

USA.gov is the U.S. government's official web portal to all federal, state and local government web resources and services.